Time;durP1;ratioP1;P1;durP2;ratioP2;P2;SDS_P1;SDS_P2;PMS_P1;PMS_P2;Temp;Humidity;BMP_temperature;BMP_pressure;BME280_temperature;BME280_humidity;BME280_pressure;Samples;Min_cycle;Max_cycle;Signal;HPM_P1;HPM_P2
2022/09/11 00:00:27;;;;;;;4.50;4.07;;;21.10;64.60;;;;;;5072993;28;20178;-75
2022/09/11 00:02:53;;;;;;;5.60;4.40;;;21.10;64.60;;;;;;5072592;28;20177;-73
2022/09/11 00:05:18;;;;;;;4.40;4.00;;;21.00;64.50;;;;;;5073129;28;20625;-74
2022/09/11 00:07:46;;;;;;;4.57;4.18;;;21.10;64.50;;;;;;5072599;28;20182;-73
2022/09/11 00:10:11;;;;;;;6.38;4.13;;;21.10;64.60;;;;;;5072785;28;20221;-75
2022/09/11 00:12:37;;;;;;;3.83;3.58;;;21.00;64.60;;;;;;5073256;28;20174;-75
2022/09/11 00:15:02;;;;;;;4.68;4.05;;;21.00;64.50;;;;;;5072732;28;20171;-72
2022/09/11 00:17:28;;;;;;;4.40;3.92;;;21.00;64.50;;;;;;5072518;28;20171;-73
2022/09/11 00:19:53;;;;;;;4.93;4.38;;;21.10;64.50;;;;;;5072945;28;20202;-73
2022/09/11 00:22:19;;;;;;;4.20;3.90;;;21.10;64.50;;;;;;5072215;28;20250;-73
2022/09/11 00:24:44;;;;;;;4.50;4.10;;;21.10;64.50;;;;;;5072473;28;20261;-73
2022/09/11 00:27:10;;;;;;;4.30;3.90;;;21.00;64.40;;;;;;5072758;28;20684;-72
2022/09/11 00:29:35;;;;;;;5.45;4.13;;;21.00;64.50;;;;;;5072098;28;20255;-72
2022/09/11 00:32:01;;;;;;;4.53;4.15;;;21.00;64.50;;;;;;5072664;28;20166;-73
2022/09/11 00:34:26;;;;;;;4.47;4.05;;;21.00;64.60;;;;;;5072869;28;20174;-73
2022/09/11 00:36:52;;;;;;;4.78;4.07;;;21.00;64.50;;;;;;5071856;28;20206;-72
2022/09/11 00:39:17;;;;;;;3.92;3.63;;;21.00;64.50;;;;;;5073057;28;20245;-73
2022/09/11 00:41:45;;;;;;;4.22;3.80;;;21.00;64.50;;;;;;5072631;28;20276;-72
2022/09/11 00:44:16;;;;;;;4.63;4.07;;;21.00;64.50;;;;;;5072214;28;20705;-74
2022/09/11 00:46:49;;;;;;;4.82;4.43;;;21.00;64.50;;;;;;5072667;28;20174;-73
2022/09/11 00:49:29;;;;;;;4.30;4.00;;;21.00;64.50;;;;;;5053772;28;20206;-74
2022/09/11 00:51:59;;;;;;;4.43;4.03;;;21.00;64.60;;;;;;5072012;28;20173;-74
2022/09/11 00:54:27;;;;;;;4.07;3.78;;;21.00;65.40;;;;;;5054843;28;20179;-74
2022/09/11 00:56:53;;;;;;;4.47;4.07;;;21.00;64.50;;;;;;5054269;28;20543;-73
2022/09/11 00:59:19;;;;;;;5.13;4.07;;;21.00;64.50;;;;;;5053885;28;20170;-73
2022/09/11 01:01:45;;;;;;;4.60;4.20;;;21.00;64.50;;;;;;5054318;28;20186;-72
2022/09/11 01:04:10;;;;;;;4.05;3.67;;;21.00;64.50;;;;;;5071921;28;20171;-73
2022/09/11 01:06:36;;;;;;;5.13;4.40;;;21.00;64.50;;;;;;5054213;28;20212;-72
2022/09/11 01:09:01;;;;;;;4.28;3.95;;;21.00;64.50;;;;;;5072380;28;20210;-73
2022/09/11 01:11:42;;;;;;;4.68;4.18;;;21.00;64.50;;;;;;5071511;28;20178;-72
2022/09/11 01:14:12;;;;;;;5.10;4.55;;;20.90;64.40;;;;;;5054059;28;20174;-72
2022/09/11 01:16:40;;;;;;;4.00;3.70;;;20.90;64.40;;;;;;5054742;28;20269;-72
2022/09/11 01:19:36;;;;;;;4.65;4.25;;;21.00;64.50;;;;;;5053346;28;20189;-72
2022/09/11 01:22:25;;;;;;;4.63;4.05;;;21.00;64.50;;;;;;5072409;28;20170;-72
2022/09/11 01:24:55;;;;;;;4.70;4.30;;;20.90;64.30;;;;;;5053777;28;20659;-73
2022/09/11 01:27:30;;;;;;;3.85;3.55;;;21.00;64.50;;;;;;5071664;28;20222;-72
2022/09/11 01:30:00;;;;;;;5.00;4.47;;;20.90;64.40;;;;;;5054325;28;20292;-73
2022/09/11 01:32:43;;;;;;;4.15;3.78;;;20.90;65.30;;;;;;5054200;28;20564;-72
2022/09/11 01:35:30;;;;;;;4.90;4.40;;;20.90;64.40;;;;;;5055677;28;20174;-71
2022/09/11 01:38:22;;;;;;;4.88;4.43;;;20.90;64.40;;;;;;5054221;28;20186;-72
2022/09/11 01:40:52;;;;;;;5.53;4.25;;;20.90;64.30;;;;;;5051411;28;20183;-73
2022/09/11 01:43:30;;;;;;;4.38;3.97;;;20.90;64.40;;;;;;5072068;28;20186;-73
2022/09/11 01:45:56;;;;;;;4.82;4.25;;;20.90;64.40;;;;;;5053978;28;20178;-74
2022/09/11 01:48:25;;;;;;;4.93;4.40;;;20.90;64.40;;;;;;5053517;28;20261;-74
2022/09/11 01:50:52;;;;;;;4.45;4.05;;;20.90;64.30;;;;;;5054196;28;20221;-73
2022/09/11 01:53:17;;;;;;;5.18;3.83;;;20.90;64.40;;;;;;5054306;28;20544;-74
2022/09/11 01:55:57;;;;;;;4.57;4.18;;;20.90;64.40;;;;;;5053665;28;20656;-72
2022/09/11 01:58:30;;;;;;;4.47;4.07;;;20.90;64.40;;;;;;5054700;28;20182;-74
2022/09/11 02:01:21;;;;;;;3.65;3.35;;;20.90;64.40;;;;;;5055718;28;20261;-73
2022/09/11 02:03:51;;;;;;;4.45;4.05;;;20.90;64.30;;;;;;5075168;28;20637;-72
2022/09/11 02:06:20;;;;;;;4.88;4.43;;;20.90;64.30;;;;;;5057832;28;20578;-72
2022/09/11 02:08:52;;;;;;;4.85;4.32;;;20.90;64.30;;;;;;5056912;28;20175;-72
2022/09/11 02:11:17;;;;;;;4.93;4.53;;;20.90;64.40;;;;;;5057749;28;20178;-73
2022/09/11 02:14:15;;;;;;;4.22;3.90;;;20.90;64.30;;;;;;5057291;28;20175;-73
2022/09/11 02:16:49;;;;;;;4.88;4.47;;;20.90;64.40;;;;;;5074204;28;20186;-72
2022/09/11 02:19:18;;;;;;;4.70;4.30;;;20.90;64.30;;;;;;5057362;28;20601;-73
2022/09/11 02:21:45;;;;;;;4.65;4.25;;;20.90;64.30;;;;;;5056346;28;20185;-72
2022/09/11 02:24:11;;;;;;;5.28;4.78;;;20.90;64.30;;;;;;5056654;28;20182;-72
2022/09/11 02:26:39;;;;;;;6.20;4.15;;;20.90;64.30;;;;;;5073686;28;20653;-72
2022/09/11 02:29:05;;;;;;;5.35;4.43;;;20.80;64.20;;;;;;5055122;28;20210;-73
2022/09/11 02:31:31;;;;;;;4.88;4.47;;;20.90;64.30;;;;;;5055605;28;20171;-73
2022/09/11 02:33:56;;;;;;;4.97;4.57;;;20.90;64.30;;;;;;5055273;28;20170;-73
2022/09/11 02:36:31;;;;;;;5.35;4.85;;;20.90;64.30;;;;;;5072548;28;20166;-73
2022/09/11 02:39:18;;;;;;;4.53;4.13;;;20.90;64.20;;;;;;5072772;28;20227;-73
2022/09/11 02:42:14;;;;;;;4.80;4.25;;;20.90;64.20;;;;;;5072562;28;20315;-72
2022/09/11 02:44:55;;;;;;;5.15;4.50;;;20.90;64.30;;;;;;5072810;28;20669;-72
2022/09/11 02:47:52;;;;;;;4.72;4.25;;;20.90;64.30;;;;;;5073951;28;20176;-73
2022/09/11 02:50:39;;;;;;;4.95;4.55;;;20.90;64.30;;;;;;5056391;28;20214;-74
2022/09/11 02:53:13;;;;;;;4.78;4.38;;;20.90;64.20;;;;;;5055773;28;20703;-74
2022/09/11 02:56:03;;;;;;;4.50;4.13;;;20.80;64.20;;;;;;5055233;28;20181;-73
2022/09/11 02:59:07;;;;;;;5.07;4.57;;;20.80;64.10;;;;;;5072709;28;20295;-74
2022/09/11 03:01:52;;;;;;;4.30;3.90;;;20.80;64.10;;;;;;5011351;28;20191;-71
2022/09/11 03:04:19;;;;;;;4.93;4.53;;;20.80;65.00;;;;;;5010811;28;20185;-73
2022/09/11 03:06:44;;;;;;;5.97;4.57;;;20.80;64.10;;;;;;5048223;28;20280;-73
2022/09/11 03:09:10;;;;;;;4.90;4.50;;;20.80;64.10;;;;;;5073180;28;20309;-73
2022/09/11 03:11:35;;;;;;;4.88;4.35;;;20.80;64.10;;;;;;5072023;28;20254;-73
2022/09/11 03:14:01;;;;;;;5.75;4.47;;;20.80;64.20;;;;;;5073040;28;20167;-73
2022/09/11 03:16:26;;;;;;;4.80;4.40;;;20.80;64.20;;;;;;5072992;28;20178;-72
2022/09/11 03:18:52;;;;;;;5.10;4.57;;;20.80;64.20;;;;;;5072550;28;20182;-73
2022/09/11 03:21:18;;;;;;;4.70;4.30;;;20.80;64.20;;;;;;5072997;28;20182;-73
2022/09/11 03:23:43;;;;;;;5.15;4.75;;;20.80;64.20;;;;;;5072640;28;20601;-72
2022/09/11 03:26:09;;;;;;;4.93;4.43;;;20.80;64.10;;;;;;5072446;28;20301;-73
2022/09/11 03:28:34;;;;;;;4.57;4.25;;;20.70;64.10;;;;;;5072651;28;20613;-73
2022/09/11 03:31:00;;;;;;;4.97;4.57;;;20.80;64.10;;;;;;5072363;28;20190;-73
2022/09/11 03:33:26;;;;;;;4.93;4.53;;;20.80;64.10;;;;;;5071959;28;20182;-73
2022/09/11 03:35:52;;;;;;;5.18;4.68;;;20.80;64.10;;;;;;5072105;28;20186;-73
2022/09/11 03:38:18;;;;;;;6.35;4.50;;;20.70;64.10;;;;;;5072293;28;20174;-74
2022/09/11 03:40:44;;;;;;;5.10;4.70;;;20.80;64.00;;;;;;5071926;28;20258;-74
2022/09/11 03:43:11;;;;;;;4.75;4.35;;;20.80;64.00;;;;;;5072435;28;20284;-74
2022/09/11 03:45:37;;;;;;;4.70;4.30;;;20.80;64.00;;;;;;5072175;28;20297;-73
2022/09/11 03:48:02;;;;;;;4.50;4.10;;;20.70;63.90;;;;;;5071824;28;20250;-74
2022/09/11 03:50:28;;;;;;;4.57;4.20;;;20.80;64.00;;;;;;5072081;28;20202;-74
2022/09/11 03:52:53;;;;;;;6.22;4.88;;;20.70;63.90;;;;;;5071514;28;20241;-73
2022/09/11 03:55:19;;;;;;;5.22;4.80;;;20.70;63.90;;;;;;5071563;28;20509;-74
2022/09/11 03:57:45;;;;;;;4.38;4.00;;;20.70;63.90;;;;;;5071829;28;20178;-73
2022/09/11 04:00:10;;;;;;;4.75;4.35;;;20.70;63.90;;;;;;5072101;28;20194;-74
2022/09/11 04:02:36;;;;;;;4.32;3.92;;;20.70;63.90;;;;;;5071661;28;20178;-74
2022/09/11 04:05:03;;;;;;;4.45;4.15;;;20.70;63.70;;;;;;5071623;28;20190;-74
2022/09/11 04:07:29;;;;;;;5.18;4.68;;;20.70;63.70;;;;;;5071409;28;20269;-74
2022/09/11 04:09:56;;;;;;;4.68;4.28;;;20.70;63.90;;;;;;5071873;28;20206;-73
2022/09/11 04:12:21;;;;;;;4.32;3.92;;;20.70;63.80;;;;;;5071936;28;20214;-73
2022/09/11 04:14:49;;;;;;;4.63;4.13;;;20.70;63.70;;;;;;5071311;28;20667;-72
2022/09/11 04:17:14;;;;;;;5.10;4.70;;;20.70;63.70;;;;;;5071973;28;20671;-72
2022/09/11 04:19:40;;;;;;;4.82;4.43;;;20.70;63.70;;;;;;5071634;28;20186;-73
2022/09/11 04:22:05;;;;;;;4.97;4.57;;;20.70;63.70;;;;;;5071558;28;20171;-72
2022/09/11 04:24:31;;;;;;;4.75;4.30;;;20.70;63.70;;;;;;5072036;28;20194;-73
2022/09/11 04:26:59;;;;;;;4.97;4.57;;;20.70;63.70;;;;;;5071405;28;20217;-73
2022/09/11 04:29:25;;;;;;;4.28;3.97;;;20.70;63.60;;;;;;5071281;28;20225;-73
2022/09/11 04:31:50;;;;;;;5.05;4.65;;;20.70;63.70;;;;;;5071626;28;20232;-73
2022/09/11 04:34:16;;;;;;;4.18;3.88;;;20.70;63.70;;;;;;5070828;28;20598;-72
2022/09/11 04:36:42;;;;;;;4.25;3.95;;;20.70;63.70;;;;;;5053371;28;20632;-72
2022/09/11 04:39:08;;;;;;;4.00;3.70;;;20.70;63.60;;;;;;5071560;28;20208;-72
2022/09/11 04:41:33;;;;;;;4.20;3.80;;;20.70;63.60;;;;;;5071312;28;20170;-72
2022/09/11 04:44:02;;;;;;;4.28;3.88;;;20.70;63.60;;;;;;5070908;28;20174;-73
2022/09/11 04:46:27;;;;;;;3.63;3.42;;;20.60;63.50;;;;;;5071354;28;20261;-72
2022/09/11 04:49:01;;;;;;;3.72;3.42;;;20.70;63.60;;;;;;5070734;28;20720;-73
2022/09/11 04:51:31;;;;;;;3.78;3.58;;;20.70;63.50;;;;;;5070962;28;20633;-73
2022/09/11 04:53:57;;;;;;;3.75;3.45;;;20.70;63.60;;;;;;5071373;28;20661;-72
2022/09/11 04:56:30;;;;;;;4.10;3.70;;;20.60;63.50;;;;;;5071290;28;20175;-73
2022/09/11 04:59:08;;;;;;;3.90;3.60;;;20.60;63.50;;;;;;5071302;28;20174;-72
2022/09/11 05:01:34;;;;;;;4.20;3.90;;;20.70;63.50;;;;;;5071060;28;20506;-72
2022/09/11 05:04:00;;;;;;;3.85;3.65;;;20.60;63.40;;;;;;5070953;28;20178;-73
2022/09/11 05:06:26;;;;;;;3.70;3.40;;;20.60;63.40;;;;;;5071379;28;20193;-73
2022/09/11 05:08:51;;;;;;;3.55;3.35;;;20.60;63.40;;;;;;5071058;28;20276;-72
2022/09/11 05:11:17;;;;;;;3.92;3.63;;;20.60;63.40;;;;;;5071192;28;20265;-72
2022/09/11 05:13:43;;;;;;;3.85;3.55;;;20.60;63.30;;;;;;5071178;28;20270;-72
2022/09/11 05:16:10;;;;;;;3.75;3.45;;;20.60;63.40;;;;;;5070779;28;20189;-73
2022/09/11 05:18:36;;;;;;;4.20;3.33;;;20.60;63.30;;;;;;5070995;28;20186;-72
2022/09/11 05:21:04;;;;;;;3.90;3.60;;;20.60;63.30;;;;;;5071324;28;20171;-73
2022/09/11 05:23:31;;;;;;;3.80;3.50;;;20.60;63.30;;;;;;5071106;28;20185;-72
2022/09/11 05:25:57;;;;;;;4.20;3.90;;;20.60;63.20;;;;;;5070396;28;20246;-72
2022/09/11 05:28:24;;;;;;;4.05;3.70;;;20.60;63.20;;;;;;5071191;28;20194;-73
2022/09/11 05:30:49;;;;;;;4.15;3.67;;;20.60;63.20;;;;;;5070285;28;20727;-72
2022/09/11 05:33:15;;;;;;;4.22;3.47;;;20.60;63.20;;;;;;5070738;28;20178;-73
2022/09/11 05:35:40;;;;;;;3.45;3.22;;;20.60;63.20;;;;;;5073541;28;20174;-72
2022/09/11 05:38:06;;;;;;;3.80;3.50;;;20.60;63.20;;;;;;5074771;28;20639;-72
2022/09/11 05:40:32;;;;;;;4.47;3.83;;;20.60;63.20;;;;;;5074266;28;20197;-72
2022/09/11 05:42:58;;;;;;;3.80;3.50;;;20.60;63.20;;;;;;5074637;28;20205;-72
2022/09/11 05:45:23;;;;;;;3.95;3.65;;;20.60;63.20;;;;;;5074369;28;20640;-73
2022/09/11 05:47:49;;;;;;;3.72;3.42;;;20.60;63.10;;;;;;5074230;28;20174;-72
2022/09/11 05:50:14;;;;;;;3.50;3.22;;;20.60;63.10;;;;;;5075235;28;20249;-73
2022/09/11 05:52:40;;;;;;;4.05;3.75;;;20.60;63.20;;;;;;5075142;28;20263;-73
2022/09/11 05:55:06;;;;;;;3.85;3.55;;;20.60;63.20;;;;;;5074417;28;20771;-74
2022/09/11 05:57:31;;;;;;;3.67;3.38;;;20.60;63.20;;;;;;5074859;28;20178;-73
2022/09/11 05:59:57;;;;;;;3.88;3.58;;;20.60;63.20;;;;;;5074604;28;20502;-73
2022/09/11 06:02:23;;;;;;;3.88;3.58;;;20.60;63.20;;;;;;5075233;28;20549;-73
2022/09/11 06:04:48;;;;;;;3.95;3.15;;;20.60;63.20;;;;;;5074839;28;20664;-72
2022/09/11 06:07:14;;;;;;;3.40;3.10;;;20.60;63.20;;;;;;5074617;28;20206;-73
2022/09/11 06:09:39;;;;;;;3.72;3.42;;;20.60;63.20;;;;;;5074783;28;20568;-73
2022/09/11 06:12:05;;;;;;;3.47;3.17;;;20.60;63.30;;;;;;5074449;28;20585;-73
2022/09/11 06:14:31;;;;;;;3.22;3.03;;;20.60;63.30;;;;;;5074465;28;20324;-74
2022/09/11 06:16:56;;;;;;;3.05;2.85;;;20.60;63.30;;;;;;5074862;28;20178;-73
2022/09/11 06:19:22;;;;;;;3.25;3.05;;;20.60;63.40;;;;;;5074739;28;20171;-73
2022/09/11 06:21:49;;;;;;;3.35;3.00;;;20.60;63.50;;;;;;5073877;28;20640;-73
2022/09/11 06:24:14;;;;;;;3.10;2.78;;;20.60;63.50;;;;;;5074829;28;20178;-74
2022/09/11 06:26:40;;;;;;;3.03;2.83;;;20.60;63.50;;;;;;5073846;28;20231;-73
2022/09/11 06:29:06;;;;;;;2.72;2.53;;;20.60;63.50;;;;;;5073905;28;20221;-74
2022/09/11 06:31:32;;;;;;;2.85;2.63;;;20.60;64.40;;;;;;5074625;28;20190;-73
2022/09/11 06:33:57;;;;;;;3.13;2.92;;;20.60;63.50;;;;;;5074048;28;20628;-75
2022/09/11 06:36:28;;;;;;;3.38;2.78;;;20.60;63.50;;;;;;5073422;28;20167;-74
2022/09/11 06:38:56;;;;;;;3.30;3.00;;;20.60;63.50;;;;;;5074226;28;20174;-74
2022/09/11 06:41:23;;;;;;;2.30;2.20;;;20.60;63.50;;;;;;5073937;28;20198;-74
2022/09/11 06:43:49;;;;;;;2.80;2.63;;;20.60;63.50;;;;;;5073849;28;20523;-74
2022/09/11 06:46:19;;;;;;;2.67;2.47;;;20.60;63.40;;;;;;5073398;28;20225;-74
2022/09/11 06:48:45;;;;;;;2.60;2.40;;;20.70;63.40;;;;;;5073786;28;20174;-74
2022/09/11 06:51:13;;;;;;;2.47;2.38;;;20.70;63.40;;;;;;5073508;28;20201;-75
2022/09/11 06:53:39;;;;;;;2.70;2.47;;;20.70;63.30;;;;;;5073817;28;20174;-73
2022/09/11 06:56:05;;;;;;;2.80;2.60;;;20.70;63.30;;;;;;5073118;28;20178;-75
2022/09/11 06:58:31;;;;;;;3.10;2.90;;;20.70;63.30;;;;;;5073999;28;20173;-75
2022/09/11 07:01:03;;;;;;;2.90;2.65;;;20.70;63.30;;;;;;5073617;28;20167;-74
2022/09/11 07:03:29;;;;;;;3.00;2.70;;;20.70;63.20;;;;;;5073372;28;20212;-74
2022/09/11 07:05:55;;;;;;;2.58;2.38;;;20.80;63.20;;;;;;5073643;28;20200;-75
2022/09/11 07:08:20;;;;;;;2.88;2.67;;;20.70;63.10;;;;;;5072764;28;20179;-75
2022/09/11 07:10:46;;;;;;;2.70;2.60;;;20.70;63.10;;;;;;5072742;28;20233;-75
2022/09/11 07:13:11;;;;;;;3.00;2.80;;;20.70;63.00;;;;;;5074132;28;20616;-74
2022/09/11 07:15:36;;;;;;;2.63;2.50;;;20.80;63.10;;;;;;5073216;28;20497;-74
2022/09/11 07:18:02;;;;;;;3.15;2.95;;;20.80;63.10;;;;;;5072942;28;20194;-74
2022/09/11 07:20:28;;;;;;;2.70;2.50;;;20.80;63.10;;;;;;5055731;28;20175;-73
2022/09/11 07:22:53;;;;;;;2.55;2.42;;;20.80;63.20;;;;;;5072840;28;20261;-74
2022/09/11 07:25:19;;;;;;;3.47;3.17;;;20.80;63.10;;;;;;5072775;28;20269;-73
2022/09/11 07:27:44;;;;;;;2.90;2.70;;;20.80;63.20;;;;;;5072949;28;20222;-74
2022/09/11 07:30:10;;;;;;;2.75;2.60;;;20.80;63.00;;;;;;5073151;28;20217;-75
2022/09/11 07:32:36;;;;;;;2.33;2.22;;;20.90;63.10;;;;;;5072680;28;20181;-74
2022/09/11 07:35:03;;;;;;;2.38;2.28;;;20.90;63.20;;;;;;5072880;28;20174;-73
2022/09/11 07:37:28;;;;;;;2.88;2.67;;;20.90;63.10;;;;;;5072846;28;20178;-72
2022/09/11 07:39:54;;;;;;;2.40;2.30;;;20.90;63.00;;;;;;5071827;28;20571;-72
2022/09/11 07:42:19;;;;;;;3.17;2.60;;;20.90;63.00;;;;;;5073258;28;20174;-73
2022/09/11 07:44:45;;;;;;;3.05;2.85;;;20.90;63.10;;;;;;5072555;28;20580;-73
2022/09/11 07:47:10;;;;;;;2.58;2.38;;;20.90;63.10;;;;;;5072365;28;20253;-74
2022/09/11 07:49:36;;;;;;;2.75;2.55;;;20.90;63.10;;;;;;5072742;28;20210;-73
2022/09/11 07:52:05;;;;;;;2.65;2.45;;;21.00;63.00;;;;;;5072520;28;20231;-71
2022/09/11 07:54:30;;;;;;;3.45;3.15;;;21.00;63.00;;;;;;5072392;28;20175;-70
2022/09/11 07:56:56;;;;;;;3.42;3.13;;;21.00;62.90;;;;;;5072493;28;20178;-71
2022/09/11 07:59:22;;;;;;;3.33;3.13;;;21.10;63.00;;;;;;5071991;28;20208;-73
2022/09/11 08:01:49;;;;;;;3.35;3.05;;;21.00;63.00;;;;;;5072453;28;20304;-70
2022/09/11 08:04:14;;;;;;;3.13;2.92;;;21.10;63.00;;;;;;5072653;28;20232;-73
2022/09/11 08:06:40;;;;;;;3.08;2.78;;;21.10;63.00;;;;;;5072185;28;20605;-71
2022/09/11 08:09:07;;;;;;;2.78;2.58;;;21.20;63.00;;;;;;5072276;28;20688;-74
2022/09/11 08:11:39;;;;;;;2.83;2.53;;;21.10;62.90;;;;;;5072442;28;20279;-74
2022/09/11 08:14:06;;;;;;;2.35;2.15;;;21.20;63.00;;;;;;5071921;28;20170;-73
2022/09/11 08:16:31;;;;;;;2.80;2.60;;;21.20;63.70;;;;;;5072446;28;20178;-74
2022/09/11 08:18:57;;;;;;;3.10;2.90;;;21.20;62.90;;;;;;5071997;28;20175;-74
2022/09/11 08:21:22;;;;;;;2.65;2.45;;;21.30;62.90;;;;;;5071807;28;20198;-74
2022/09/11 08:23:48;;;;;;;2.63;2.42;;;21.30;62.90;;;;;;5072332;28;20533;-74
2022/09/11 08:26:15;;;;;;;3.17;2.97;;;21.30;62.80;;;;;;5071555;28;20218;-73
2022/09/11 08:28:44;;;;;;;3.40;3.10;;;21.30;62.80;;;;;;5071893;28;20257;-74
2022/09/11 08:31:10;;;;;;;3.58;3.28;;;21.30;62.80;;;;;;5072297;28;20186;-74
2022/09/11 08:33:36;;;;;;;3.30;3.00;;;21.40;62.90;;;;;;5072042;28;20227;-73
2022/09/11 08:36:07;;;;;;;3.00;2.80;;;21.40;62.80;;;;;;5071553;28;20178;-74
2022/09/11 08:38:32;;;;;;;3.03;2.65;;;21.40;62.80;;;;;;5072199;28;20615;-73
2022/09/11 08:41:07;;;;;;;2.90;2.60;;;21.40;62.80;;;;;;5071444;28;20265;-73
2022/09/11 08:43:34;;;;;;;2.72;2.53;;;21.40;62.80;;;;;;5071614;28;20232;-74
2022/09/11 08:46:03;;;;;;;2.78;2.58;;;21.40;62.80;;;;;;5053839;28;20277;-74
2022/09/11 08:48:33;;;;;;;2.53;2.33;;;21.40;62.70;;;;;;5054314;28;20185;-73
2022/09/11 08:51:00;;;;;;;2.90;2.70;;;21.40;62.70;;;;;;5053858;28;20218;-74
2022/09/11 08:53:25;;;;;;;2.97;2.70;;;21.50;62.80;;;;;;5054007;28;20625;-75
2022/09/11 08:55:59;;;;;;;2.85;2.65;;;21.40;62.80;;;;;;5053539;28;20174;-75
2022/09/11 08:58:43;;;;;;;3.47;2.80;;;21.50;62.80;;;;;;5054849;28;20171;-75
2022/09/11 09:01:23;;;;;;;4.10;3.80;;;21.50;62.80;;;;;;5071889;28;20239;-74
2022/09/11 09:04:07;;;;;;;3.55;3.25;;;21.50;62.80;;;;;;5071507;28;20170;-72
2022/09/11 09:06:48;;;;;;;2.83;2.63;;;21.50;62.80;;;;;;5072026;28;20178;-72
2022/09/11 09:09:32;;;;;;;3.55;3.25;;;21.60;62.80;;;;;;5071647;28;20197;-75
2022/09/11 09:12:07;;;;;;;3.25;3.00;;;21.60;62.80;;;;;;5075623;28;20174;-75
2022/09/11 09:14:38;;;;;;;4.30;3.38;;;21.60;62.90;;;;;;5057737;28;20182;-73
2022/09/11 09:17:11;;;;;;;5.28;3.97;;;21.70;62.90;;;;;;5075113;28;20633;-72
2022/09/11 09:19:45;;;;;;;5.97;3.83;;;21.70;63.20;;;;;;5058662;28;20196;-75
2022/09/11 09:22:19;;;;;;;6.75;4.53;;;21.70;63.30;;;;;;5058147;28;20261;-72
2022/09/11 09:24:47;;;;;;;11.27;4.85;;;21.80;63.50;;;;;;5074794;28;20174;-67
2022/09/11 09:27:32;;;;;;;6.32;4.38;;;21.90;63.50;;;;;;5075571;28;20261;-67
2022/09/11 09:29:59;;;;;;;8.95;5.60;;;22.00;63.60;;;;;;5057058;28;20213;-66
2022/09/11 09:32:30;;;;;;;10.48;5.53;;;22.10;63.60;;;;;;5056702;28;20182;-66
2022/09/11 09:34:58;;;;;;;9.90;5.40;;;22.20;63.70;;;;;;5057793;28;20175;-63
2022/09/11 09:37:25;;;;;;;9.25;5.20;;;22.20;63.60;;;;;;5057400;28;20178;-67
2022/09/11 09:39:50;;;;;;;7.90;4.80;;;22.20;64.20;;;;;;5074893;28;20206;-67
2022/09/11 09:42:32;;;;;;;10.98;4.95;;;22.20;64.40;;;;;;5056971;28;20212;-68
2022/09/11 09:45:30;;;;;;;6.60;5.32;;;22.10;64.50;;;;;;5074868;28;20174;-67
2022/09/11 09:47:55;;;;;;;5.13;4.55;;;22.10;64.50;;;;;;5060036;28;20178;-67
2022/09/11 09:50:21;;;;;;;6.13;4.70;;;22.10;64.90;;;;;;5074976;28;20254;-67
2022/09/11 09:52:47;;;;;;;8.60;4.88;;;22.00;65.10;;;;;;5074485;28;20171;-67
2022/09/11 09:55:15;;;;;;;7.25;4.85;;;22.00;65.30;;;;;;5057121;28;20206;-65
2022/09/11 09:57:42;;;;;;;6.95;4.93;;;21.90;65.40;;;;;;5074957;28;20181;-65
2022/09/11 10:00:11;;;;;;;9.25;5.03;;;21.90;65.60;;;;;;5074246;28;20638;-67
2022/09/11 10:02:37;;;;;;;7.03;4.80;;;21.90;65.70;;;;;;5074953;28;20265;-67
2022/09/11 10:05:13;;;;;;;9.52;5.15;;;21.90;65.90;;;;;;5074630;28;20177;-67
2022/09/11 10:07:45;;;;;;;5.90;5.10;;;21.90;65.80;;;;;;5073838;28;20589;-66
2022/09/11 10:10:20;;;;;;;6.28;5.25;;;21.90;65.90;;;;;;5074849;28;20214;-67
2022/09/11 10:12:46;;;;;;;5.70;4.80;;;21.90;65.80;;;;;;5074745;28;20186;-69
2022/09/11 10:15:21;;;;;;;6.43;4.68;;;21.90;66.10;;;;;;5056389;28;20170;-69
2022/09/11 10:17:47;;;;;;;5.72;5.10;;;21.90;66.10;;;;;;5056616;28;20185;-69
2022/09/11 10:20:17;;;;;;;5.70;5.00;;;21.90;66.20;;;;;;5074005;28;20178;-68
2022/09/11 10:22:43;;;;;;;8.10;4.95;;;21.90;66.00;;;;;;5074183;28;20231;-68
2022/09/11 10:25:14;;;;;;;8.77;5.03;;;21.90;65.90;;;;;;5056402;28;20269;-67
2022/09/11 10:27:43;;;;;;;10.60;8.50;;;21.90;65.70;;;;;;5073818;28;20245;-68
2022/09/11 10:30:35;;;;;;;9.55;7.70;;;21.90;65.50;;;;;;5056581;28;20210;-67
2022/09/11 10:33:29;;;;;;;8.02;6.40;;;22.00;65.30;;;;;;5056308;28;20254;-67
2022/09/11 10:35:55;;;;;;;7.82;6.30;;;22.00;65.10;;;;;;5073709;28;20167;-68
2022/09/11 10:38:22;;;;;;;10.45;6.10;;;22.10;65.00;;;;;;5056278;28;20582;-68
2022/09/11 10:40:53;;;;;;;8.05;5.28;;;22.20;64.80;;;;;;5056107;28;20691;-68
2022/09/11 10:43:23;;;;;;;7.85;6.30;;;22.20;64.70;;;;;;5074065;28;20178;-66
2022/09/11 10:46:19;;;;;;;8.43;4.95;;;22.20;64.50;;;;;;5055996;28;20182;-64
2022/09/11 10:49:12;;;;;;;11.68;5.43;;;22.30;64.50;;;;;;5055401;28;20174;-61
2022/09/11 10:51:39;;;;;;;12.77;5.50;;;22.30;64.70;;;;;;5062916;28;20203;-65
2022/09/11 10:54:26;;;;;;;8.02;5.43;;;22.30;65.10;;;;;;5055947;28;20249;-65
2022/09/11 10:57:13;;;;;;;8.18;4.80;;;22.20;65.40;;;;;;5073295;28;20202;-68
2022/09/11 11:00:09;;;;;;;13.77;6.00;;;22.20;65.00;;;;;;5073432;28;20178;-65
2022/09/11 11:02:49;;;;;;;10.07;4.95;;;22.20;65.50;;;;;;5073325;28;20364;-65
2022/09/11 11:05:49;;;;;;;6.40;5.07;;;22.10;65.10;;;;;;5073549;28;20174;-65
2022/09/11 11:08:23;;;;;;;8.50;4.75;;;22.00;65.20;;;;;;5040321;28;20509;-64
2022/09/11 11:11:23;;;;;;;7.60;5.03;;;22.00;65.20;;;;;;5073099;28;20217;-67
2022/09/11 11:14:15;;;;;;;9.13;4.97;;;22.00;65.20;;;;;;5073365;28;20189;-67
2022/09/11 11:16:58;;;;;;;7.22;5.07;;;22.00;65.10;;;;;;5057845;28;20174;-68
2022/09/11 11:19:32;;;;;;;10.15;4.57;;;22.00;65.10;;;;;;5073634;28;20503;-68
2022/09/11 11:22:20;;;;;;;7.25;4.68;;;22.00;65.10;;;;;;5073130;28;20461;-68
2022/09/11 11:24:45;;;;;;;6.95;4.88;;;22.00;65.00;;;;;;5056630;28;20198;-68
2022/09/11 11:27:48;;;;;;;5.75;4.53;;;22.00;64.90;;;;;;5073644;28;20299;-67
2022/09/11 11:30:20;;;;;;;5.22;4.72;;;22.00;64.80;;;;;;5055622;28;20293;-67
2022/09/11 11:33:34;;;;;;;9.15;4.65;;;22.00;64.70;;;;;;5054397;28;20179;-67
2022/09/11 11:36:07;;;;;;;9.50;4.57;;;22.00;64.70;;;;;;5011019;28;20177;-67
2022/09/11 11:38:35;;;;;;;5.18;4.03;;;22.00;64.50;;;;;;5051639;28;20217;-67
2022/09/11 11:41:07;;;;;;;5.13;4.15;;;22.00;64.40;;;;;;5055050;28;20175;-67
2022/09/11 11:43:35;;;;;;;5.55;4.40;;;22.10;64.30;;;;;;5055100;28;20601;-67
2022/09/11 11:46:09;;;;;;;5.15;4.05;;;22.20;64.20;;;;;;5072525;28;20175;-67
2022/09/11 11:48:39;;;;;;;6.32;4.05;;;22.30;64.00;;;;;;5056218;28;20181;-67
2022/09/11 11:51:18;;;;;;;10.05;4.45;;;22.40;63.70;;;;;;5055029;28;20210;-64
2022/09/11 11:53:54;;;;;;;4.45;4.05;;;22.40;63.60;;;;;;5055613;28;20198;-66
2022/09/11 11:56:38;;;;;;;4.93;3.97;;;22.40;63.40;;;;;;5072785;28;20586;-67
2022/09/11 11:59:26;;;;;;;4.18;3.70;;;22.50;63.30;;;;;;5072380;28;20779;-67
2022/09/11 12:02:08;;;;;;;5.75;3.95;;;22.50;63.20;;;;;;5072489;28;20213;-67
2022/09/11 12:04:36;;;;;;;3.92;3.60;;;22.50;63.20;;;;;;5054929;28;20174;-65
2022/09/11 12:07:02;;;;;;;4.45;4.05;;;22.50;63.20;;;;;;5072114;28;20179;-65
2022/09/11 12:09:30;;;;;;;4.03;3.72;;;22.50;63.20;;;;;;5054318;28;20596;-64
2022/09/11 12:11:56;;;;;;;4.90;3.63;;;22.50;63.30;;;;;;5072413;28;20179;-65
2022/09/11 12:14:31;;;;;;;5.40;4.28;;;22.40;63.50;;;;;;5054035;28;20713;-65
2022/09/11 12:16:56;;;;;;;4.70;3.85;;;22.40;63.70;;;;;;5054306;28;20311;-65
2022/09/11 12:19:24;;;;;;;4.95;4.45;;;22.40;63.70;;;;;;5054801;28;20261;-65
2022/09/11 12:21:52;;;;;;;3.80;3.50;;;22.30;63.80;;;;;;5071845;28;20178;-65
2022/09/11 12:24:51;;;;;;;4.97;3.40;;;22.40;63.60;;;;;;5072311;28;20551;-65
2022/09/11 12:27:35;;;;;;;3.88;3.53;;;22.50;63.30;;;;;;5071561;28;20305;-65
2022/09/11 12:30:27;;;;;;;3.83;3.53;;;22.60;63.10;;;;;;5072140;28;20531;-65
2022/09/11 12:32:54;;;;;;;8.02;4.40;;;22.60;63.00;;;;;;5051708;28;20209;-65
2022/09/11 12:35:24;;;;;;;5.07;3.78;;;22.50;63.10;;;;;;5072037;28;20174;-65
2022/09/11 12:37:55;;;;;;;3.63;3.33;;;22.50;63.30;;;;;;5053900;28;20186;-65
2022/09/11 12:40:31;;;;;;;4.22;3.58;;;22.50;63.30;;;;;;5054423;28;20655;-65
2022/09/11 12:42:58;;;;;;;4.20;3.83;;;22.50;63.30;;;;;;5054226;28;20178;-65
2022/09/11 12:45:50;;;;;;;4.13;3.80;;;22.40;63.50;;;;;;5071867;28;20179;-65
2022/09/11 12:48:19;;;;;;;4.07;3.70;;;22.40;63.50;;;;;;5068777;28;20182;-64
2022/09/11 12:50:49;;;;;;;4.15;3.75;;;22.40;63.30;;;;;;5053916;28;20665;-67
2022/09/11 12:53:17;;;;;;;3.90;3.50;;;22.50;63.30;;;;;;5054168;28;20166;-67
2022/09/11 12:55:53;;;;;;;4.13;3.75;;;22.60;63.10;;;;;;5053581;28;20193;-67
2022/09/11 12:58:18;;;;;;;8.35;3.72;;;22.50;63.10;;;;;;5054030;28;20174;-64
2022/09/11 13:00:46;;;;;;;3.90;3.50;;;22.60;63.90;;;;;;5071321;28;20178;-69
2022/09/11 13:03:19;;;;;;;4.75;3.90;;;22.70;63.10;;;;;;5053498;28;20632;-67